Latest Weather Observations for Williamtown

IDN60901

Issued at 9:21 am EST Thursday 1 October 2020 (issued every 10 minutes, with the page automatically refreshed every 10 minutes)

About weather observations | Map of Sydney area stations | Latest observations for Sydney area | Other Formats
Station Details ID: 061078 Name: WILLIAMTOWN RAAF Lat: -32.79 Lon: 151.84 Height: 7.5 m
Data from the previous 72 hours. | See also: Recent months at Williamtown
Date/Time
EST
Temp
°C
App
Temp
°C
Dew
Point
°C
Rel
Hum
%
Delta-T
°C
Wind Press
QNH
hPa
Press
MSL
hPa
Rain since
9am
mm
Dir  Spd
km/h
Gust
km/h
Spd
kts
Gust
kts
01/09:00am 19.3 14.8 12.6 65 3.8 NW 28 41 15 22 1015.8 1015.7 0.4
01/08:30am 17.4 13.5 12.1 71 2.9 NW 24 32 13 17 1016.2 1016.1 0.4
01/08:00am 15.3 13.5 12.2 82 1.7 NW 13 17 7 9 1016.2 1016.1 0.4
01/07:30am 14.4 13.1 12.4 88 1.1 NNW 11 15 6 8 1016.0 1015.9 0.4
01/07:00am 13.5 12.9 12.2 92 0.7 WNW 7 9 4 5 1015.9 1015.8 0.4
01/06:30am 13.3 12.7 12.4 94 0.5 WNW 7 9 4 5 1015.3 1015.2 0.4
01/06:00am 13.1 12.2 11.5 90 0.8 WNW 7 9 4 5 1014.8 1014.7 0.4
01/05:30am 13.5 12.4 11.9 90 0.9 NNW 9 11 5 6 1014.2 1014.1 0.4
01/05:00am 13.3 12.6 11.9 91 0.7 N 7 9 4 5 1013.5 1013.4 0.4
01/04:30am 13.6 12.5 12.0 90 0.9 N 9 11 5 6 1013.1 1013.0 0.4
01/04:00am 14.4 14.5 11.4 82 1.6 WNW 2 7 1 4 1012.7 1012.6 0.4
01/03:30am 14.8 13.0 11.0 78 2.0 NNW 11 17 6 9 1013.2 1013.1 0.0
01/03:00am 14.4 12.3 11.0 80 1.8 NW 13 15 7 8 1013.0 1012.9 0.0
01/02:30am 13.4 12.0 10.9 85 1.3 NW 9 13 5 7 1013.2 1013.1 0.0
01/02:00am 13.8 12.8 11.1 84 1.4 NNW 7 9 4 5 1013.1 1013.0 0.0
01/01:30am 13.5 12.2 11.2 86 1.2 NW 9 11 5 6 1013.4 1013.3 0.0
01/01:00am 13.4 11.7 11.3 87 1.1 NW 11 17 6 9 1013.5 1013.4 0.0
01/12:30am 12.5 11.1 10.9 90 0.8 NW 9 13 5 7 1013.8 1013.7 0.0
01/12:00am 12.3 11.2 10.7 90 0.8 NW 7 9 4 5 1013.9 1013.8 0.0
 
Date/Time
EST
Temp
°C
App
Temp
°C
Dew
Point
°C
Rel
Hum
%
Delta-T
°C
Wind Press
QNH
hPa
Press
MSL
hPa
Rain since
9am
mm
Dir  Spd
km/h
Gust
km/h
Spd
kts
Gust
kts
30/11:30pm 11.2 9.9 9.3 88 1.0 NW 6 9 3 5 1014.2 1014.1 0.0
30/11:00pm 12.1 11.8 10.2 88 1.0 NNW 2 7 1 4 1014.1 1014.0 0.0
30/10:30pm 11.6 10.4 9.7 88 1.0 NW 6 11 3 6 1014.7 1014.6 0.0
30/10:00pm 12.4 12.2 10.3 87 1.1 NW 2 7 1 4 1014.7 1014.6 0.0
30/09:30pm 13.2 13.3 10.0 81 1.6 CALM 0 0 0 0 1015.1 1015.0 0.0
30/09:00pm 14.5 14.7 10.5 77 2.1 CALM 0 0 0 0 1015.5 1015.4 0.0
30/08:30pm 15.0 15.2 10.6 75 2.3 CALM 0 0 0 0 1015.5 1015.4 0.0
30/08:00pm 17.0 17.1 10.1 64 3.6 CALM 0 4 0 2 1015.6 1015.5 0.0
30/07:30pm 17.9 15.8 9.8 59 4.3 W 11 15 6 8 1015.6 1015.5 0.0
30/07:00pm 17.8 17.0 10.9 64 3.7 E 6 9 3 5 1015.3 1015.2 0.0
30/06:30pm 18.0 18.4 11.3 65 3.6 CALM 0 0 0 0 1015.1 1015.0 0.0
30/06:00pm 18.6 17.7 10.7 60 4.3 WNW 6 9 3 5 1015.3 1015.2 0.0
30/05:30pm 19.2 17.9 9.9 55 5.0 NW 7 11 4 6 1015.3 1015.2 0.0
30/05:00pm 19.7 16.9 10.1 54 5.1 WNW 15 17 8 9 1015.2 1015.1 0.0
30/04:30pm 20.7 18.6 9.9 50 5.8 NNW 11 15 6 8 1015.1 1015.0 0.0
30/04:00pm 20.9 19.2 9.8 49 6.0 NNW 9 13 5 7 1015.0 1014.9 0.0
30/03:30pm 20.7 18.4 9.0 47 6.2 N 11 17 6 9 1015.1 1015.0 0.0
30/03:00pm 21.0 18.2 8.6 45 6.5 N 13 20 7 11 1015.2 1015.1 0.0
30/02:30pm 22.2 19.8 10.0 46 6.6 NNW 13 19 7 10 1015.7 1015.6 0.0
30/02:00pm 21.6 19.4 9.2 45 6.6 N 11 20 6 11 1016.0 1015.9 0.0
30/01:30pm 20.4 18.2 9.3 49 5.9 N 11 15 6 8 1016.4 1016.3 0.0
30/01:00pm 20.0 17.8 9.3 50 5.7 NNW 11 15 6 8 1017.0 1016.9 0.0
30/12:30pm 19.8 18.0 9.4 51 5.5 NNW 9 15 5 8 1017.5 1017.4 0.0
30/12:00pm 19.6 17.5 9.8 53 5.2 N 11 15 6 8 1017.9 1017.8 0.0
30/11:30am 19.1 16.7 9.9 55 4.9 NNW 13 15 7 8 1018.5 1018.4 0.0
30/11:00am 18.6 16.2 9.9 57 4.6 NW 13 17 7 9 1018.9 1018.8 0.0
30/10:30am 18.3 15.8 9.6 57 4.6 NNW 13 19 7 10 1019.3 1019.2 0.0
30/10:00am 17.6 15.6 10.0 61 4.0 NW 11 15 6 8 1019.6 1019.5 0.0
30/09:30am 17.3 15.1 9.5 60 4.1 NNW 11 15 6 8 1019.8 1019.7 0.0
30/09:00am 17.6 15.2 10.0 61 4.0 NNW 13 17 7 9 1020.1 1020.0 0.0
30/08:30am 16.3 13.6 8.8 61 3.8 N 13 19 7 10 1020.2 1020.1 0.0
30/08:00am 15.9 13.0 9.6 66 3.3 N 15 19 8 10 1020.2 1020.1 0.0
30/07:30am 13.9 12.3 10.1 78 2.0 NNE 9 11 5 6 1020.1 1020.0 0.0
30/07:00am 10.8 10.8 9.7 93 0.6 CALM 0 0 0 0 1020.0 1019.9 0.0
30/06:30am 9.7 9.4 8.6 93 0.5 CALM 0 0 0 0 1019.5 1019.4 0.0
30/06:00am 8.8 8.3 7.7 93 0.5 CALM 0 0 0 0 1019.3 1019.2 0.0
30/05:30am 9.1 8.6 7.7 91 0.7 CALM 0 0 0 0 1019.1 1019.0 0.0
30/05:00am 9.6 9.2 8.2 91 0.7 CALM 0 0 0 0 1018.9 1018.8 0.0
30/04:30am 9.6 9.2 8.2 91 0.7 CALM 0 0 0 0 1019.0 1018.9 0.0
30/04:00am 9.6 8.8 8.2 91 0.7 NE 2 7 1 4 1019.2 1019.1 0.0
30/03:30am 9.6 9.1 8.0 90 0.8 CALM 0 0 0 0 1019.6 1019.5 0.0
30/03:00am 9.3 8.7 7.4 88 0.9 CALM 0 0 0 0 1019.9 1019.8 0.0
30/02:30am 10.3 9.3 7.5 83 1.3 NNE 2 7 1 4 1020.1 1020.0 0.0
30/02:00am 12.0 9.6 8.8 81 1.6 NE 11 15 6 8 1020.4 1020.3 0.0
30/01:30am 12.5 10.6 9.0 79 1.8 NE 9 11 5 6 1021.0 1021.0 0.0
30/01:00am 13.0 10.7 8.9 76 2.1 NE 11 15 6 8 1021.5 1021.5 0.0
30/12:30am 12.8 10.9 8.9 77 2.0 NE 9 13 5 7 1022.0 1022.0 0.0
30/12:00am 12.6 10.7 8.9 78 1.8 NNE 9 11 5 6 1022.4 1022.4 0.0
 
Date/Time
EST
Temp
°C
App
Temp
°C
Dew
Point
°C
Rel
Hum
%
Delta-T
°C
Wind Press
QNH
hPa
Press
MSL
hPa
Rain since
9am
mm
Dir  Spd
km/h
Gust
km/h
Spd
kts
Gust
kts
29/11:30pm 12.0 10.5 9.0 82 1.5 NNE 7 9 4 5 1023.1 1023.1 0.0
29/11:00pm 12.1 10.3 9.3 83 1.4 N 9 11 5 6 1023.3 1023.3 0.0
29/10:30pm 12.4 11.1 10.0 85 1.2 NNE 7 9 4 5 1023.4 1023.4 0.0
29/10:00pm 12.1 10.8 10.0 87 1.1 NNE 7 9 4 5 1023.8 1023.8 0.0
29/09:30pm 11.6 10.2 9.5 87 1.1 N 7 9 4 5 1024.1 1024.1 0.0
29/09:00pm 11.6 10.1 9.2 85 1.2 N 7 9 4 5 1024.2 1024.2 0.0
29/08:30pm 12.7 11.2 9.3 80 1.7 NNE 7 9 4 5 1024.3 1024.3 0.0
29/08:00pm 13.7 11.9 9.6 76 2.1 ENE 9 11 5 6 1024.1 1024.1 0.0
29/07:30pm 14.2 13.0 9.4 73 2.5 NE 6 9 3 5 1024.0 1024.0 0.0
29/07:00pm 14.6 12.7 9.0 69 2.8 ENE 9 11 5 6 1023.8 1023.8 0.0
29/06:30pm 15.3 12.6 9.0 66 3.2 ENE 13 15 7 8 1023.5 1023.5 0.0
29/06:00pm 15.7 13.7 8.7 63 3.6 E 9 11 5 6 1023.4 1023.4 0.0
29/05:30pm 16.3 13.7 7.8 57 4.3 E 11 17 6 9 1023.4 1023.4 0.0
29/05:00pm 16.9 12.8 7.8 55 4.6 E 19 26 10 14 1023.3 1023.3 0.0
29/04:30pm 17.4 13.2 8.3 55 4.7 ESE 20 28 11 15 1023.1 1023.1 0.0
29/04:00pm 17.5 13.2 7.8 53 4.9 ESE 20 30 11 16 1022.7 1022.7 0.0
29/03:30pm 17.7 13.1 8.3 54 4.8 ESE 22 33 12 18 1023.0 1023.0 0.0
29/03:00pm 18.0 13.7 8.0 52 5.1 ESE 20 30 11 16 1023.2 1023.2 0.0
29/02:30pm 18.4 13.9 8.4 52 5.2 SE 22 33 12 18 1023.5 1023.5 0.0
29/02:00pm 18.4 13.9 8.7 53 5.0 SE 22 32 12 17 1024.0 1024.0 0.0
29/01:30pm 18.5 14.4 8.5 52 5.2 ESE 20 35 11 19 1024.4 1024.4 0.0
29/01:00pm 18.0 13.4 8.3 53 5.0 SE 22 30 12 16 1024.9 1024.9 0.0
29/12:30pm 17.9 13.9 8.2 53 5.0 SE 19 26 10 14 1025.4 1025.4 0.0
29/12:00pm 18.2 13.7 8.7 54 4.9 SE 22 32 12 17 1025.4 1025.4 0.0
29/11:30am 17.8 14.5 9.4 58 4.4 ESE 17 28 9 15 1026.0 1026.0 0.0
29/11:00am 18.0 14.9 8.8 55 4.7 SSE 15 22 8 12 1026.7 1026.7 0.0
29/10:30am 18.3 16.2 9.6 57 4.6 SSE 11 17 6 9 1027.2 1027.2 0.0
29/10:00am 17.6 15.0 9.2 58 4.3 SE 13 24 7 13 1027.4 1027.4 0.0
29/09:30am 17.2 15.1 9.6 61 4.0 SSE 11 17 6 9 1027.2 1027.2 0.0
29/09:00am 16.6 15.9 10.0 65 3.4 SE 4 11 2 6 1027.4 1027.4 0.0
29/08:30am 14.1 12.2 8.9 71 2.6 WNW 9 11 5 6 1027.7 1027.7 0.0
29/08:00am 12.4 10.0 8.5 77 1.9 WNW 11 13 6 7 1027.6 1027.6 0.0
29/07:30am 10.5 7.9 7.9 84 1.3 NW 11 15 6 8 1027.1 1027.1 0.0
29/07:00am 8.8 6.6 7.7 93 0.5 NW 9 11 5 6 1026.7 1026.7 0.0
29/06:30am 6.6 4.4 6.2 97 0.2 W 7 9 4 5 1026.6 1026.6 0.0
29/06:00am 5.0 2.1 4.6 97 0.2 NW 9 11 5 6 1026.2 1026.2 0.0
29/05:30am 4.7 1.7 4.3 97 0.2 NW 9 9 5 5 1025.6 1025.6 0.0
29/05:00am 3.5 0.6 2.6 94 0.4 NW 7 13 4 7 1025.4 1025.4 0.0
29/04:30am 3.8 1.9 2.8 93 0.4 WNW 2 7 1 4 1025.1 1025.1 0.0
29/04:00am 4.6 3.2 3.4 92 0.5 CALM 0 0 0 0 1025.0 1025.0 0.0
29/03:30am 4.4 3.0 3.4 93 0.4 CALM 0 0 0 0 1025.2 1025.2 0.0
29/03:00am 4.4 3.0 3.5 94 0.4 CALM 0 0 0 0 1025.1 1025.1 0.0
29/02:30am 4.9 3.6 3.9 93 0.4 CALM 0 0 0 0 1025.4 1025.4 0.0
29/02:00am 5.5 4.3 4.8 95 0.3 CALM 0 0 0 0 1025.7 1025.7 0.0
29/01:30am 4.9 3.6 3.9 93 0.4 CALM 0 0 0 0 1025.8 1025.8 0.0
29/01:00am 5.4 4.2 4.5 94 0.4 CALM 0 0 0 0 1026.0 1026.0 0.0
29/12:30am 6.0 4.8 4.8 92 0.5 CALM 0 0 0 0 1026.3 1026.3 0.0
29/12:00am 5.9 4.7 4.4 90 0.6 CALM 0 0 0 0 1026.3 1026.3 0.0
 
Date/Time
EST
Temp
°C
App
Temp
°C
Dew
Point
°C
Rel
Hum
%
Delta-T
°C
Wind Press
QNH
hPa
Press
MSL
hPa
Rain since
9am
mm
Dir  Spd
km/h
Gust
km/h
Spd
kts
Gust
kts
28/11:30pm 6.8 5.7 5.3 90 0.7 CALM 0 0 0 0 1026.3 1026.3 0.0
28/11:00pm 6.9 5.9 5.5 91 0.6 CALM 0 0 0 0 1026.4 1026.4 0.0
28/10:30pm 7.1 5.9 4.8 85 1.0 CALM 0 0 0 0 1026.4 1026.4 0.0
28/10:00pm 9.3 7.2 6.6 83 1.2 NNE 7 11 4 6 1026.3 1026.3 0.0
28/09:30pm 8.1 7.1 5.4 83 1.2 CALM 0 0 0 0 1026.4 1026.4 0.0
28/09:00pm 9.3 8.3 5.7 78 1.6 CALM 0 0 0 0 1026.4 1026.4 0.0
28/08:30pm 11.3 8.9 6.8 74 2.1 NNE 9 11 5 6 1026.3 1026.3 0.0
28/08:00pm 10.1 8.0 6.6 79 1.6 NNE 7 11 4 6 1026.3 1026.3 0.0
28/07:30pm 10.3 9.3 5.5 72 2.2 CALM 0 0 0 0 1026.1 1026.1 0.0
28/07:00pm 12.8 10.7 5.9 63 3.2 ENE 6 9 3 5 1025.8 1025.8 0.0
28/06:30pm 14.1 11.4 5.5 56 4.1 ENE 9 11 5 6 1025.3 1025.3 0.0
28/06:00pm 14.9 12.5 5.4 53 4.5 ENE 7 11 4 6 1025.1 1025.1 0.0
28/05:30pm 15.8 12.3 5.4 50 5.0 E 13 15 7 8 1024.7 1024.7 0.0
28/05:00pm 16.4 12.1 5.1 47 5.3 E 17 22 9 12 1024.6 1024.6 0.0
28/04:30pm 16.9 12.7 5.5 47 5.5 ESE 17 24 9 13 1024.4 1024.4 0.0
28/04:00pm 17.1 12.9 5.7 47 5.5 ESE 17 24 9 13 1024.4 1024.4 0.0
28/03:30pm 17.4 13.2 5.7 46 5.7 ESE 17 26 9 14 1024.4 1024.4 0.0
28/03:00pm 17.9 13.8 6.4 47 5.7 SE 17 24 9 13 1024.5 1024.5 0.0
28/02:30pm 17.5 13.1 6.7 49 5.4 SE 19 26 10 14 1024.7 1024.7 0.0
28/02:00pm 18.0 13.5 7.1 49 5.4 ESE 20 28 11 15 1024.9 1024.9 0.0
28/01:30pm 18.4 13.9 6.9 47 5.8 SSE 20 28 11 15 1025.1 1025.1 0.0
28/01:00pm 17.2 13.0 5.8 47 5.5 SE 17 24 9 13 1025.3 1025.3 0.0
28/12:30pm 17.1 12.4 6.0 48 5.4 SE 20 32 11 17 1025.7 1025.7 0.0
28/12:00pm 16.8 13.0 5.7 48 5.3 ESE 15 22 8 12 1026.1 1026.1 0.0
28/11:30am 16.3 13.1 7.0 54 4.6 SE 13 20 7 11 1026.7 1026.7 0.0
28/11:00am 16.0 12.8 6.7 54 4.5 SSE 13 17 7 9 1027.1 1027.1 0.0
28/10:30am 15.9 13.0 6.6 54 4.5 SE 11 19 6 10 1027.5 1027.5 0.0
28/10:00am 16.4 13.8 6.0 50 5.0 ESE 9 17 5 9 1027.8 1027.8 0.0
28/09:30am 17.0 14.2 6.8 51 5.0 SE 11 17 6 9 1028.0 1028.0 0.0

Latest Capital City Observations: Canberra | Sydney | Melbourne | Brisbane | Adelaide | Perth | Hobart | Darwin

Other formats

Comma delimited format used in spreadsheet applications
http://www.bom.gov.au/fwo/IDN60901/IDN60901.94776.axf

JavaScript Object Notation format (JSON) in row-major order
http://www.bom.gov.au/fwo/IDN60901/IDN60901.94776.json

Data quality

Most of these data are generated automatically and are frequently updated. Quality checks on data are not normally performed. It is possible for incorrect values to appear. Refer to information at About Latest Weather Observations and please check the disclaimer before using these data.